Terminal Aerodrome Forecast
Issued by NWS

Home | Current Version | Previous Version | Text Only | Print | Product List | Glossary On
Versions: 1 2 3 4 5 6 7 8 9 10 11 12 13 14 15 16 17 18 19 20 21 22 23 24 25 26
000
FTUS43 KLSX 202342 AAA
TAFUIN
TAF AMD
KUIN 202342Z 2100/2124 18009KT P6SM VCSH OVC060
     FM210100 20008KT 6SM -SHRA OVC040
      TEMPO 2101/2105 3SM SHRA OVC025
     FM210600 20005KT P6SM OVC035
     FM211200 29005KT P6SM BKN035
     FM211600 33007KT P6SM SCT090=

USA.gov is the U.S. government's official web portal to all federal, state and local government web resources and services.